createdAt,value
2019-05-19T00:01:43.769Z,6.45
2019-05-19T00:04:14.372Z,6.17
2019-05-19T00:06:45.348Z,6.70
2019-05-19T00:09:16.787Z,6.50
2019-05-19T00:11:47.442Z,6.40
2019-05-19T00:14:18.070Z,6.63
2019-05-19T00:16:49.205Z,6.28
2019-05-19T00:19:26.722Z,6.63
2019-05-19T00:21:52.426Z,6.10
2019-05-19T00:24:23.257Z,6.50
2019-05-19T00:26:54.136Z,6.40
2019-05-19T00:29:25.042Z,5.72
2019-05-19T00:31:55.629Z,5.60
2019-05-19T00:34:26.188Z,5.33
2019-05-19T00:36:57.335Z,5.57
2019-05-19T00:39:29.690Z,5.74
2019-05-19T00:42:00.311Z,5.37
2019-05-19T00:44:31.114Z,5.97
2019-05-19T00:47:01.683Z,5.67
2019-05-19T00:49:40.963Z,5.37
2019-05-19T00:52:05.135Z,5.53
2019-05-19T00:54:35.892Z,5.80
2019-05-19T00:57:07.028Z,5.80
2019-05-19T00:59:37.765Z,5.23
2019-05-19T01:02:08.450Z,5.67
2019-05-19T01:04:39.183Z,5.70
2019-05-19T01:07:10.009Z,4.83
2019-05-19T01:09:40.665Z,5.58
2019-05-19T01:12:11.263Z,5.13
2019-05-19T01:14:42.139Z,5.37
2019-05-19T01:17:13.283Z,5.03
2019-05-19T01:19:55.177Z,4.77
2019-05-19T01:22:16.482Z,4.87
2019-05-19T01:24:47.479Z,4.42
2019-05-19T01:27:18.570Z,4.17
2019-05-19T01:29:49.288Z,4.40
2019-05-19T01:32:20.169Z,4.83
2019-05-19T01:34:50.747Z,4.70
2019-05-19T01:37:21.455Z,4.73
2019-05-19T01:39:52.249Z,4.70
2019-05-19T01:42:22.816Z,4.83
2019-05-19T01:44:53.390Z,4.87
2019-05-19T01:47:24.285Z,4.70
2019-05-19T01:49:54.971Z,5.10
2019-05-19T01:52:25.522Z,5.27
2019-05-19T01:54:56.242Z,5.57
2019-05-19T01:57:26.911Z,5.27
2019-05-19T01:59:57.517Z,4.80
2019-05-19T02:02:29.768Z,5.45
2019-05-19T02:05:00.405Z,5.50
2019-05-19T02:07:31.644Z,4.45
2019-05-19T02:10:02.847Z,4.87
2019-05-19T02:12:33.668Z,4.83
2019-05-19T02:15:04.532Z,5.03
2019-05-19T02:17:35.313Z,5.00
2019-05-19T02:20:06.464Z,4.83
2019-05-19T02:22:37.925Z,4.50
2019-05-19T02:25:08.571Z,4.60
2019-05-19T02:27:39.960Z,4.53
2019-05-19T02:30:11.066Z,5.83
2019-05-19T02:32:41.911Z,5.27
2019-05-19T02:35:12.658Z,5.43
2019-05-19T02:37:43.678Z,5.40
2019-05-19T02:40:15.556Z,5.50
2019-05-19T02:42:48.314Z,5.55
2019-05-19T02:45:19.367Z,5.23
2019-05-19T02:47:51.319Z,4.90
2019-05-19T02:50:22.488Z,5.87
2019-05-19T02:52:54.740Z,5.17
2019-05-19T02:55:26.153Z,5.03
2019-05-19T02:57:57.326Z,4.53
2019-05-19T03:00:40.916Z,4.90
2019-05-19T03:03:11.601Z,4.70
2019-05-19T03:05:42.497Z,4.50
2019-05-19T03:08:13.705Z,4.70
2019-05-19T03:10:44.632Z,4.80
2019-05-19T03:13:15.482Z,5.17
2019-05-19T03:15:46.038Z,5.15
2019-05-19T03:18:16.763Z,4.83
2019-05-19T03:20:47.784Z,5.47
2019-05-19T03:23:18.402Z,5.10
2019-05-19T03:25:49.554Z,4.83
2019-05-19T03:28:20.436Z,4.90
2019-05-19T03:31:08.805Z,4.83
2019-05-19T03:33:41.682Z,5.03
2019-05-19T03:36:12.589Z,5.00
2019-05-19T03:38:43.278Z,5.37
2019-05-19T03:41:13.875Z,4.13
2019-05-19T03:43:44.720Z,4.27
2019-05-19T03:46:15.444Z,4.23
2019-05-19T03:48:46.019Z,4.35
2019-05-19T03:51:30.217Z,4.17
2019-05-19T03:53:49.756Z,3.90
2019-05-19T03:56:20.538Z,4.27
2019-05-19T03:58:51.446Z,4.00
2019-05-19T04:01:22.510Z,3.67
2019-05-19T04:03:53.440Z,3.85
2019-05-19T04:06:24.019Z,4.00
2019-05-19T04:08:54.608Z,3.73
2019-05-19T04:11:25.239Z,3.90
2019-05-19T04:13:55.777Z,4.00
2019-05-19T04:16:26.598Z,3.67
2019-05-19T04:18:57.515Z,4.03
2019-05-19T04:21:38.790Z,3.76
2019-05-19T04:24:02.570Z,3.93
2019-05-19T04:26:33.136Z,4.13
2019-05-19T04:29:03.715Z,3.70
2019-05-19T04:31:34.601Z,3.93
2019-05-19T04:34:05.222Z,4.07
2019-05-19T04:36:36.128Z,3.62
2019-05-19T04:39:08.763Z,3.73
2019-05-19T04:41:40.532Z,4.45
2019-05-19T04:44:11.530Z,3.77
2019-05-19T04:46:42.109Z,3.87
2019-05-19T04:49:12.701Z,4.90
2019-05-19T04:51:44.092Z,4.72
2019-05-19T04:54:14.710Z,5.47
2019-05-19T04:56:45.294Z,5.07
2019-05-19T04:59:15.935Z,5.13
2019-05-19T05:01:46.784Z,5.03
2019-05-19T05:04:17.724Z,4.73
2019-05-19T05:06:48.597Z,4.97
2019-05-19T05:09:19.148Z,4.90
2019-05-19T05:11:49.765Z,4.80
2019-05-19T05:14:20.651Z,4.70
2019-05-19T05:16:51.217Z,4.67
2019-05-19T05:19:21.794Z,4.53
2019-05-19T05:21:52.608Z,4.60
2019-05-19T05:24:23.200Z,4.73
2019-05-19T05:26:53.767Z,4.27
2019-05-19T05:29:24.813Z,4.20
2019-05-19T05:31:55.684Z,4.30
2019-05-19T05:34:26.299Z,4.67
2019-05-19T05:36:56.870Z,4.47
2019-05-19T05:39:27.503Z,4.40
2019-05-19T05:41:58.059Z,5.33
2019-05-19T05:44:30.216Z,4.70
2019-05-19T05:47:00.858Z,4.50
2019-05-19T05:49:31.968Z,4.40
2019-05-19T05:52:02.712Z,4.50
2019-05-19T05:54:33.586Z,4.43
2019-05-19T05:57:04.207Z,5.07
2019-05-19T05:59:35.103Z,4.70
2019-05-19T06:02:05.699Z,4.50
2019-05-19T06:04:36.265Z,5.15
2019-05-19T06:07:06.903Z,4.90
2019-05-19T06:09:38.049Z,4.67
2019-05-19T06:12:08.860Z,4.93
2019-05-19T06:14:39.467Z,4.63
2019-05-19T06:17:10.032Z,4.53
2019-05-19T06:19:41.056Z,4.30
2019-05-19T06:22:11.820Z,4.33
2019-05-19T06:24:42.698Z,4.93
2019-05-19T06:27:13.249Z,4.93
2019-05-19T06:29:43.959Z,5.43
2019-05-19T06:32:22.040Z,5.50
2019-05-19T06:34:52.812Z,5.13
2019-05-19T06:37:23.440Z,4.70
2019-05-19T06:39:54.124Z,4.93
2019-05-19T06:42:24.978Z,5.17
2019-05-19T06:44:56.484Z,5.17
2019-05-19T06:47:27.054Z,5.00
2019-05-19T06:49:57.922Z,5.40
2019-05-19T06:52:30.274Z,5.08
2019-05-19T06:55:00.940Z,5.13
2019-05-19T06:57:32.100Z,4.90
2019-05-19T07:00:03.390Z,4.97
2019-05-19T07:02:35.349Z,5.30
2019-05-19T07:05:06.423Z,5.67
2019-05-19T07:07:37.290Z,4.70
2019-05-19T07:10:08.347Z,5.10
2019-05-19T07:12:39.233Z,5.00
2019-05-19T07:15:11.366Z,5.75
2019-05-19T07:17:42.487Z,5.27
2019-05-19T07:22:49.409Z,5.70
2019-05-19T07:25:19.979Z,5.77
2019-05-19T07:27:50.845Z,5.60
2019-05-19T07:30:21.569Z,5.30
2019-05-19T07:32:52.124Z,5.43
2019-05-19T07:35:22.996Z,5.90
2019-05-19T07:37:53.897Z,6.10
2019-05-19T07:40:25.427Z,5.65
2019-05-19T07:42:56.333Z,5.77
2019-05-19T07:45:27.429Z,6.17
2019-05-19T07:47:58.316Z,5.70
2019-05-19T07:50:29.421Z,6.20
2019-05-19T07:53:00.210Z,5.60
2019-05-19T07:55:31.070Z,6.05
2019-05-19T07:58:02.017Z,6.13
2019-05-19T08:00:33.334Z,5.75
2019-05-19T08:03:04.516Z,5.10
2019-05-19T08:05:35.783Z,4.73
2019-05-19T08:08:06.838Z,5.10
2019-05-19T08:10:37.702Z,4.63
2019-05-19T08:13:08.545Z,4.70
2019-05-19T08:15:39.423Z,4.47
2019-05-19T08:18:10.383Z,4.77
2019-05-19T08:20:41.239Z,4.70
2019-05-19T08:23:12.135Z,4.70
2019-05-19T08:25:42.773Z,5.30
2019-05-19T08:28:14.096Z,5.40
2019-05-19T08:30:44.647Z,4.58
2019-05-19T08:33:15.531Z,4.50
2019-05-19T08:35:46.324Z,4.83
2019-05-19T08:38:17.212Z,4.47
2019-05-19T08:40:48.455Z,5.37
2019-05-19T08:43:19.393Z,5.30
2019-05-19T08:45:50.365Z,5.27
2019-05-19T08:48:21.291Z,5.50
2019-05-19T08:50:51.934Z,4.90
2019-05-19T08:53:22.516Z,4.65
2019-05-19T08:55:53.399Z,4.03
2019-05-19T08:58:24.298Z,4.77
2019-05-19T09:00:55.172Z,4.73
2019-05-19T09:03:26.369Z,5.05
2019-05-19T09:05:57.280Z,4.40
2019-05-19T09:08:28.203Z,4.93
2019-05-19T09:10:59.340Z,5.10
2019-05-19T09:14:04.716Z,4.67
2019-05-19T09:16:35.693Z,4.20
2019-05-19T09:19:06.527Z,4.50
2019-05-19T09:21:37.499Z,4.90
2019-05-19T09:24:08.459Z,4.10
2019-05-19T09:26:39.244Z,4.60
2019-05-19T09:29:09.876Z,4.20
2019-05-19T09:31:41.512Z,4.40
2019-05-19T09:34:12.450Z,3.63
2019-05-19T09:36:43.527Z,3.40
2019-05-19T09:39:14.411Z,3.20
2019-05-19T09:41:45.265Z,3.52
2019-05-19T09:44:16.449Z,3.70
2019-05-19T09:46:47.305Z,2.83
2019-05-19T09:49:33.522Z,3.30
2019-05-19T09:52:06.043Z,3.30
2019-05-19T09:54:44.773Z,2.83
2019-05-19T09:57:09.730Z,3.50
2019-05-19T09:59:40.345Z,4.00
2019-05-19T10:02:11.237Z,3.60
2019-05-19T10:04:42.417Z,3.47
2019-05-19T10:07:13.388Z,3.90
2019-05-19T10:10:08.354Z,3.45
2019-05-19T10:12:39.503Z,3.52
2019-05-19T10:15:12.326Z,3.62
2019-05-19T10:17:42.913Z,4.20
2019-05-19T10:20:15.465Z,4.13
2019-05-19T10:22:46.654Z,3.52
2019-05-19T10:25:22.217Z,4.00
2019-05-19T10:27:50.492Z,4.33
2019-05-19T10:32:53.540Z,4.50
2019-05-19T10:35:24.420Z,4.40
2019-05-19T10:37:55.009Z,3.83
2019-05-19T10:40:25.860Z,4.13
2019-05-19T10:42:56.722Z,4.50
2019-05-19T10:45:27.810Z,4.37
2019-05-19T10:47:58.678Z,4.70
2019-05-19T10:50:30.839Z,4.08
2019-05-19T10:53:01.737Z,4.93
2019-05-19T10:55:36.606Z,5.00
2019-05-19T10:58:05.629Z,6.10
2019-05-19T11:00:36.380Z,5.40
2019-05-19T11:03:07.672Z,5.47
2019-05-19T11:05:38.443Z,5.20
2019-05-19T11:08:09.171Z,5.85
2019-05-19T11:10:40.182Z,5.70
2019-05-19T11:13:11.324Z,6.27
2019-05-19T11:15:41.947Z,6.22
2019-05-19T11:18:12.823Z,6.33
2019-05-19T11:20:43.484Z,5.93
2019-05-19T11:23:14.354Z,6.37
2019-05-19T11:25:51.588Z,5.80
2019-05-19T11:28:17.658Z,5.57
2019-05-19T11:30:48.836Z,5.53
2019-05-19T11:33:19.683Z,5.40
2019-05-19T11:35:50.597Z,5.20
2019-05-19T11:38:21.464Z,5.90
2019-05-19T11:40:52.811Z,6.33
2019-05-19T11:43:23.683Z,5.30
2019-05-19T11:45:54.631Z,5.03
2019-05-19T11:48:25.221Z,4.60
2019-05-19T11:50:56.128Z,5.10
2019-05-19T11:53:27.011Z,5.17
2019-05-19T11:56:06.173Z,5.30
2019-05-19T11:58:31.206Z,4.73
2019-05-19T12:01:02.092Z,4.47
2019-05-19T12:03:32.717Z,4.80
2019-05-19T12:06:03.672Z,4.50
2019-05-19T12:08:34.565Z,4.56
2019-05-19T12:11:05.503Z,4.87
2019-05-19T12:13:36.669Z,4.72
2019-05-19T12:16:07.621Z,3.90
2019-05-19T12:18:38.787Z,3.98
2019-05-19T12:21:09.691Z,3.97
2019-05-19T12:23:40.605Z,4.23
2019-05-19T12:26:22.700Z,3.77
2019-05-19T12:28:44.192Z,4.07
2019-05-19T12:31:15.091Z,3.60
2019-05-19T12:33:51.915Z,3.77
2019-05-19T12:36:18.421Z,3.80
2019-05-19T12:38:49.030Z,4.12
2019-05-19T12:41:20.092Z,3.70
2019-05-19T12:43:50.970Z,3.57
2019-05-19T12:46:21.907Z,3.63
2019-05-19T12:48:52.926Z,3.53
2019-05-19T12:51:26.793Z,3.10
2019-05-19T12:53:56.715Z,3.40
2019-05-19T12:56:39.031Z,3.20
2019-05-19T12:59:00.187Z,2.93
2019-05-19T13:01:32.083Z,2.90
2019-05-19T13:04:03.113Z,3.40
2019-05-19T13:06:34.089Z,3.97
2019-05-19T13:09:05.573Z,2.97
2019-05-19T13:11:36.194Z,2.83
2019-05-19T13:14:07.122Z,3.10
2019-05-19T13:16:37.721Z,3.10
2019-05-19T13:19:08.365Z,3.20
2019-05-19T13:21:38.989Z,3.17
2019-05-19T13:24:09.875Z,2.87
2019-05-19T13:26:54.162Z,2.73
2019-05-19T13:29:13.242Z,2.53
2019-05-19T13:31:44.122Z,3.20
2019-05-19T13:34:15.033Z,2.80
2019-05-19T13:36:46.004Z,2.80
2019-05-19T13:39:16.949Z,2.90
2019-05-19T13:41:47.828Z,3.23
2019-05-19T13:44:18.777Z,2.97
2019-05-19T13:46:49.683Z,2.73
2019-05-19T13:49:20.834Z,2.98
2019-05-19T13:51:51.719Z,3.00
2019-05-19T13:54:22.914Z,2.95
2019-05-19T13:56:53.741Z,3.23
2019-05-19T13:59:25.054Z,3.05
2019-05-19T14:01:55.980Z,3.00
2019-05-19T14:04:26.887Z,2.70
2019-05-19T14:06:57.761Z,2.90
2019-05-19T14:09:30.170Z,2.77
2019-05-19T14:12:01.044Z,2.50
2019-05-19T14:14:31.969Z,2.60
2019-05-19T14:17:02.869Z,2.80
2019-05-19T14:19:33.752Z,2.80
2019-05-19T14:22:04.933Z,2.22
2019-05-19T14:24:35.838Z,2.50
2019-05-19T14:27:07.002Z,2.80
2019-05-19T14:29:37.830Z,2.20
2019-05-19T14:32:08.890Z,2.43
2019-05-19T14:34:40.065Z,2.70
2019-05-19T14:37:10.997Z,2.40
2019-05-19T14:39:42.190Z,2.30
2019-05-19T14:42:16.730Z,2.80
2019-05-19T14:44:47.409Z,2.67
2019-05-19T14:47:18.464Z,2.80
2019-05-19T14:49:49.087Z,2.72
2019-05-19T14:52:19.993Z,3.00
2019-05-19T14:54:51.020Z,3.00
2019-05-19T14:57:21.610Z,3.10
2019-05-19T14:59:52.603Z,3.30
2019-05-19T15:02:25.161Z,3.30
2019-05-19T15:04:56.061Z,3.07
2019-05-19T15:07:27.046Z,2.93
2019-05-19T15:09:58.073Z,3.10
2019-05-19T15:12:31.149Z,3.20
2019-05-19T15:15:02.131Z,2.97
2019-05-19T15:17:33.108Z,2.87
2019-05-19T15:20:04.111Z,2.90
2019-05-19T15:22:35.061Z,2.68
2019-05-19T15:25:06.292Z,3.10
2019-05-19T15:27:37.309Z,2.70
2019-05-19T15:30:12.855Z,2.40
2019-05-19T15:32:41.084Z,2.63
2019-05-19T15:35:12.136Z,2.87
2019-05-19T15:37:43.069Z,2.92
2019-05-19T15:40:14.853Z,2.40
2019-05-19T15:42:45.573Z,2.95
2019-05-19T15:45:16.512Z,2.87
2019-05-19T15:47:47.143Z,2.70
2019-05-19T15:50:18.175Z,2.80
2019-05-19T15:52:49.244Z,3.05
2019-05-19T15:55:20.211Z,2.70
2019-05-19T15:57:51.128Z,2.80
2019-05-19T16:06:18.174Z,2.80
2019-05-19T16:08:52.219Z,3.20
2019-05-19T16:11:23.245Z,3.03
2019-05-19T16:13:54.267Z,2.90
2019-05-19T16:16:25.156Z,2.80
2019-05-19T16:18:56.122Z,2.77
2019-05-19T16:21:27.364Z,2.65
2019-05-19T16:23:58.488Z,2.50
2019-05-19T16:26:30.616Z,3.00
2019-05-19T16:29:01.675Z,3.00
2019-05-19T16:31:32.285Z,3.10
2019-05-19T16:34:03.291Z,3.27
2019-05-19T16:36:34.235Z,3.47
2019-05-19T16:39:06.977Z,3.30
2019-05-19T16:41:37.884Z,3.40
2019-05-19T16:44:08.769Z,3.70
2019-05-19T16:46:39.429Z,3.80
2019-05-19T16:49:10.618Z,3.43
2019-05-19T16:51:41.270Z,3.20
2019-05-19T16:54:17.274Z,3.67
2019-05-19T16:56:48.394Z,3.55
2019-05-19T16:59:19.523Z,2.95
2019-05-19T17:01:50.511Z,2.93
2019-05-19T17:04:21.621Z,3.33
2019-05-19T17:06:52.589Z,3.00
2019-05-19T17:09:23.929Z,3.00
2019-05-19T17:11:55.199Z,3.00
2019-05-19T17:14:25.830Z,3.62
2019-05-19T17:16:56.759Z,3.50
2019-05-19T17:19:27.575Z,3.25
2019-05-19T17:21:59.116Z,3.47
2019-05-19T17:24:31.898Z,3.52
2019-05-19T17:27:03.147Z,3.20
2019-05-19T17:29:34.259Z,3.75
2019-05-19T17:32:06.489Z,3.12
2019-05-19T17:34:38.550Z,4.53
2019-05-19T17:37:09.471Z,3.37
2019-05-19T17:39:40.415Z,3.33
2019-05-19T17:42:13.613Z,3.50
2019-05-19T17:44:43.695Z,3.85
2019-05-19T17:47:14.900Z,4.40
2019-05-19T17:49:45.637Z,3.60
2019-05-19T17:52:16.706Z,3.50
2019-05-19T17:54:47.405Z,3.62
2019-05-19T17:57:18.518Z,3.37
2019-05-19T17:59:51.992Z,3.40
2019-05-19T18:02:23.036Z,3.75
2019-05-19T18:04:53.671Z,3.35
2019-05-19T18:07:24.558Z,3.52
2019-05-19T18:09:59.155Z,3.65
2019-05-19T18:12:31.666Z,3.53
2019-05-19T18:15:03.487Z,3.40
2019-05-19T18:17:34.641Z,3.67
2019-05-19T18:20:06.109Z,3.70
2019-05-19T18:22:36.867Z,3.30
2019-05-19T18:25:07.772Z,3.80
2019-05-19T18:27:38.690Z,3.50
2019-05-19T18:30:10.227Z,3.90
2019-05-19T18:32:41.179Z,3.83
2019-05-19T18:35:12.570Z,3.83
2019-05-19T18:37:43.582Z,3.72
2019-05-19T18:40:14.894Z,4.08
2019-05-19T18:42:45.632Z,3.95
2019-05-19T18:45:16.885Z,4.00
2019-05-19T18:47:47.846Z,3.67
2019-05-19T18:50:23.463Z,3.90
2019-05-19T18:52:58.457Z,4.58
2019-05-19T18:55:29.594Z,4.37
2019-05-19T18:58:00.669Z,3.92
2019-05-19T19:00:36.220Z,4.70
2019-05-19T19:03:08.150Z,4.12
2019-05-19T19:05:38.812Z,4.12
2019-05-19T19:08:10.024Z,4.00
2019-05-19T19:10:40.744Z,4.40
2019-05-19T19:13:13.217Z,5.40
2019-05-19T19:15:43.923Z,5.42
2019-05-19T19:18:14.577Z,5.80
2019-05-19T19:20:45.686Z,5.45
2019-05-19T19:23:16.973Z,5.53
2019-05-19T19:25:47.885Z,4.80
2019-05-19T19:28:18.815Z,4.67
2019-05-19T19:30:49.706Z,5.35
2019-05-19T19:33:20.364Z,5.50
2019-05-19T19:35:51.399Z,5.10
2019-05-19T19:38:22.072Z,5.10
2019-05-19T19:40:54.341Z,5.10
2019-05-19T19:43:25.766Z,5.50
2019-05-19T19:45:56.675Z,4.97
2019-05-19T19:48:27.515Z,4.60
2019-05-19T19:50:58.950Z,5.50
2019-05-19T19:53:32.147Z,4.73
2019-05-19T19:56:02.871Z,4.47
2019-05-19T19:58:33.733Z,5.23
2019-05-19T20:01:04.618Z,4.27
2019-05-19T20:03:39.788Z,4.42
2019-05-19T20:06:08.103Z,4.27
2019-05-19T20:08:38.784Z,4.12
2019-05-19T20:11:09.793Z,4.70
2019-05-19T20:13:40.596Z,4.30
2019-05-19T20:16:11.391Z,4.70
2019-05-19T20:18:42.250Z,4.42
2019-05-19T20:23:49.169Z,4.10
2019-05-19T20:26:19.994Z,4.53
2019-05-19T20:28:51.080Z,4.47
2019-05-19T20:31:21.690Z,4.40
2019-05-19T20:33:52.399Z,4.90
2019-05-19T20:36:23.064Z,4.87
2019-05-19T20:38:53.733Z,3.93
2019-05-19T20:41:24.742Z,4.70
2019-05-19T20:43:55.579Z,4.37
2019-05-19T20:46:26.750Z,4.43
2019-05-19T20:48:57.502Z,4.40
2019-05-19T20:51:30.517Z,4.20
2019-05-19T20:54:01.479Z,4.43
2019-05-19T20:56:32.095Z,4.50
2019-05-19T20:59:02.754Z,4.60
2019-05-19T21:01:33.614Z,4.77
2019-05-19T21:04:04.441Z,4.40
2019-05-19T21:06:35.339Z,5.00
2019-05-19T21:09:06.833Z,4.30
2019-05-19T21:11:37.721Z,4.60
2019-05-19T21:14:08.650Z,4.63
2019-05-19T21:16:39.652Z,4.90
2019-05-19T21:19:10.528Z,4.33
2019-05-19T21:21:41.826Z,4.62
2019-05-19T21:24:12.545Z,4.20
2019-05-19T21:26:43.796Z,4.50
2019-05-19T21:29:14.659Z,4.97
2019-05-19T21:31:45.932Z,4.12
2019-05-19T21:34:16.580Z,4.50
2019-05-19T21:36:47.816Z,4.35
2019-05-19T21:39:18.575Z,4.07
2019-05-19T21:41:49.941Z,4.50
2019-05-19T21:44:20.738Z,4.43
2019-05-19T21:46:51.878Z,4.10
2019-05-19T21:49:22.543Z,4.57
2019-05-19T21:51:53.223Z,4.87
2019-05-19T21:54:23.810Z,4.93
2019-05-19T21:56:54.505Z,4.67
2019-05-19T21:59:25.156Z,4.63
2019-05-19T22:01:55.881Z,4.83
2019-05-19T22:04:26.598Z,4.23
2019-05-19T22:07:10.579Z,5.10
2019-05-19T22:09:41.819Z,5.22
2019-05-19T22:12:12.697Z,4.93
2019-05-19T22:14:43.849Z,5.03
2019-05-19T22:17:14.748Z,5.20
2019-05-19T22:19:45.634Z,4.90
2019-05-19T22:22:16.228Z,4.40
2019-05-19T22:24:47.366Z,5.13
2019-05-19T22:27:17.930Z,4.97
2019-05-19T22:29:48.851Z,4.90
2019-05-19T22:32:19.811Z,5.00
2019-05-19T22:34:50.435Z,5.10
2019-05-19T22:37:21.027Z,5.07
2019-05-19T22:39:51.729Z,5.43
2019-05-19T22:42:22.566Z,4.90
2019-05-19T22:44:53.201Z,4.90
2019-05-19T22:47:23.898Z,5.00
2019-05-19T22:49:54.728Z,5.30
2019-05-19T22:52:25.616Z,4.87
2019-05-19T22:54:56.255Z,5.03
2019-05-19T22:57:27.029Z,5.67
2019-05-19T22:59:57.735Z,5.50
2019-05-19T23:02:28.385Z,5.33
2019-05-19T23:04:58.965Z,5.53
2019-05-19T23:07:29.756Z,5.27
2019-05-19T23:10:00.646Z,5.53
2019-05-19T23:12:32.143Z,5.72
2019-05-19T23:15:02.728Z,5.07
2019-05-19T23:17:33.996Z,5.03
2019-05-19T23:20:06.307Z,5.43
2019-05-19T23:22:37.048Z,4.83
2019-05-19T23:25:07.879Z,4.70
2019-05-19T23:27:38.855Z,4.90
2019-05-19T23:30:10.283Z,4.77
2019-05-19T23:32:41.143Z,4.77
2019-05-19T23:35:12.002Z,4.60
2019-05-19T23:37:42.789Z,5.60
2019-05-19T23:40:13.598Z,6.23
2019-05-19T23:42:44.352Z,5.15
2019-05-19T23:45:15.218Z,4.90
2019-05-19T23:47:46.142Z,5.10
2019-05-19T23:50:17.837Z,4.80
2019-05-19T23:52:48.690Z,4.62
2019-05-19T23:55:19.298Z,4.87
2019-05-19T23:57:50.336Z,5.60
